sensor_id;sensor_type;location;lat;lon;timestamp;temperature;humidity
11229;DHT22;5671;47.936;8.716;2022-09-27T00:00:45;8.20;84.10
11229;DHT22;5671;47.936;8.716;2022-09-27T00:03:12;8.20;83.70
11229;DHT22;5671;47.936;8.716;2022-09-27T00:05:39;8.20;84.10
11229;DHT22;5671;47.936;8.716;2022-09-27T00:08:06;8.10;83.90
11229;DHT22;5671;47.936;8.716;2022-09-27T00:10:35;8.10;84.20
11229;DHT22;5671;47.936;8.716;2022-09-27T00:13:02;8.10;84.60
11229;DHT22;5671;47.936;8.716;2022-09-27T00:15:29;8.10;84.90
11229;DHT22;5671;47.936;8.716;2022-09-27T00:17:56;8.10;84.70
11229;DHT22;5671;47.936;8.716;2022-09-27T00:20:23;8.10;84.70
11229;DHT22;5671;47.936;8.716;2022-09-27T00:22:50;8.10;85.10
11229;DHT22;5671;47.936;8.716;2022-09-27T00:25:17;8.10;84.80
11229;DHT22;5671;47.936;8.716;2022-09-27T00:27:46;8.10;84.30
11229;DHT22;5671;47.936;8.716;2022-09-27T00:30:14;8.10;84.80
11229;DHT22;5671;47.936;8.716;2022-09-27T00:32:41;8.10;85.40
11229;DHT22;5671;47.936;8.716;2022-09-27T00:35:08;8.10;85.30
11229;DHT22;5671;47.936;8.716;2022-09-27T00:37:35;8.10;85.20
11229;DHT22;5671;47.936;8.716;2022-09-27T00:40:03;8.10;85.10
11229;DHT22;5671;47.936;8.716;2022-09-27T00:42:30;8.10;84.90
11229;DHT22;5671;47.936;8.716;2022-09-27T00:45:10;8.00;85.10
11229;DHT22;5671;47.936;8.716;2022-09-27T00:47:42;8.10;85.30
11229;DHT22;5671;47.936;8.716;2022-09-27T00:50:25;8.00;85.40
11229;DHT22;5671;47.936;8.716;2022-09-27T00:53:07;8.10;85.40
11229;DHT22;5671;47.936;8.716;2022-09-27T00:55:39;8.00;85.60
11229;DHT22;5671;47.936;8.716;2022-09-27T00:58:07;8.10;85.10
11229;DHT22;5671;47.936;8.716;2022-09-27T01:00:37;8.00;85.40
11229;DHT22;5671;47.936;8.716;2022-09-27T01:03:08;8.10;85.30
11229;DHT22;5671;47.936;8.716;2022-09-27T01:05:40;8.00;86.00
11229;DHT22;5671;47.936;8.716;2022-09-27T01:08:07;8.00;85.30
11229;DHT22;5671;47.936;8.716;2022-09-27T01:10:39;8.00;85.20
11229;DHT22;5671;47.936;8.716;2022-09-27T01:13:12;8.00;85.60
11229;DHT22;5671;47.936;8.716;2022-09-27T01:15:52;8.00;85.80
11229;DHT22;5671;47.936;8.716;2022-09-27T01:18:26;8.00;86.20
11229;DHT22;5671;47.936;8.716;2022-09-27T01:21:26;8.00;85.50
11229;DHT22;5671;47.936;8.716;2022-09-27T01:24:09;8.00;85.30
11229;DHT22;5671;47.936;8.716;2022-09-27T01:27:01;8.00;85.80
11229;DHT22;5671;47.936;8.716;2022-09-27T01:29:50;8.00;85.90
11229;DHT22;5671;47.936;8.716;2022-09-27T01:32:29;8.00;86.00
11229;DHT22;5671;47.936;8.716;2022-09-27T01:35:02;8.00;86.30
11229;DHT22;5671;47.936;8.716;2022-09-27T01:37:36;8.00;86.20
11229;DHT22;5671;47.936;8.716;2022-09-27T01:40:09;8.00;86.20
11229;DHT22;5671;47.936;8.716;2022-09-27T01:42:43;7.90;86.20
11229;DHT22;5671;47.936;8.716;2022-09-27T01:45:18;7.90;86.30
11229;DHT22;5671;47.936;8.716;2022-09-27T01:47:51;8.00;86.40
11229;DHT22;5671;47.936;8.716;2022-09-27T01:50:22;7.90;86.40
11229;DHT22;5671;47.936;8.716;2022-09-27T01:52:55;7.90;86.60
11229;DHT22;5671;47.936;8.716;2022-09-27T01:55:28;7.90;86.80
11229;DHT22;5671;47.936;8.716;2022-09-27T01:58:00;7.90;86.70
11229;DHT22;5671;47.936;8.716;2022-09-27T02:00:29;7.90;86.60
11229;DHT22;5671;47.936;8.716;2022-09-27T02:03:00;7.90;86.80
11229;DHT22;5671;47.936;8.716;2022-09-27T02:05:36;7.90;87.10
11229;DHT22;5671;47.936;8.716;2022-09-27T02:08:09;7.90;86.50
11229;DHT22;5671;47.936;8.716;2022-09-27T02:10:42;7.90;86.50
11229;DHT22;5671;47.936;8.716;2022-09-27T02:13:17;8.00;86.90
11229;DHT22;5671;47.936;8.716;2022-09-27T02:15:51;7.90;86.90
11229;DHT22;5671;47.936;8.716;2022-09-27T02:18:28;7.90;86.60
11229;DHT22;5671;47.936;8.716;2022-09-27T02:20:59;7.90;87.00
11229;DHT22;5671;47.936;8.716;2022-09-27T02:23:31;7.90;87.30
11229;DHT22;5671;47.936;8.716;2022-09-27T02:26:03;8.00;87.00
11229;DHT22;5671;47.936;8.716;2022-09-27T02:28:38;8.00;86.80
11229;DHT22;5671;47.936;8.716;2022-09-27T02:31:07;8.00;86.90
11229;DHT22;5671;47.936;8.716;2022-09-27T02:33:37;8.00;86.50
11229;DHT22;5671;47.936;8.716;2022-09-27T02:36:06;8.00;86.50
11229;DHT22;5671;47.936;8.716;2022-09-27T02:38:34;8.00;86.50
11229;DHT22;5671;47.936;8.716;2022-09-27T02:41:01;7.90;86.60
11229;DHT22;5671;47.936;8.716;2022-09-27T02:43:30;7.90;86.70
11229;DHT22;5671;47.936;8.716;2022-09-27T02:46:11;7.90;86.50
11229;DHT22;5671;47.936;8.716;2022-09-27T02:48:50;7.90;86.40
11229;DHT22;5671;47.936;8.716;2022-09-27T02:51:32;7.90;86.90
11229;DHT22;5671;47.936;8.716;2022-09-27T02:54:12;7.90;86.30
11229;DHT22;5671;47.936;8.716;2022-09-27T02:56:49;7.90;86.90
11229;DHT22;5671;47.936;8.716;2022-09-27T02:59:27;7.90;87.00
11229;DHT22;5671;47.936;8.716;2022-09-27T03:02:04;7.90;87.20
11229;DHT22;5671;47.936;8.716;2022-09-27T03:04:36;7.90;87.00
11229;DHT22;5671;47.936;8.716;2022-09-27T03:07:06;7.90;87.10
11229;DHT22;5671;47.936;8.716;2022-09-27T03:09:41;7.90;87.30
11229;DHT22;5671;47.936;8.716;2022-09-27T03:12:09;7.90;86.70
11229;DHT22;5671;47.936;8.716;2022-09-27T03:14:36;7.90;87.00
11229;DHT22;5671;47.936;8.716;2022-09-27T03:17:03;7.90;86.60
11229;DHT22;5671;47.936;8.716;2022-09-27T03:19:29;7.90;86.70
11229;DHT22;5671;47.936;8.716;2022-09-27T03:22:05;7.90;86.60
11229;DHT22;5671;47.936;8.716;2022-09-27T03:24:32;7.90;86.10
11229;DHT22;5671;47.936;8.716;2022-09-27T03:26:59;7.80;86.50
11229;DHT22;5671;47.936;8.716;2022-09-27T03:29:26;7.80;86.60
11229;DHT22;5671;47.936;8.716;2022-09-27T03:31:53;7.80;86.10
11229;DHT22;5671;47.936;8.716;2022-09-27T03:34:20;7.80;86.20
11229;DHT22;5671;47.936;8.716;2022-09-27T03:36:47;7.80;86.50
11229;DHT22;5671;47.936;8.716;2022-09-27T03:39:16;7.80;86.20
11229;DHT22;5671;47.936;8.716;2022-09-27T03:41:43;7.80;85.90
11229;DHT22;5671;47.936;8.716;2022-09-27T03:44:10;7.80;86.50
11229;DHT22;5671;47.936;8.716;2022-09-27T03:46:37;7.70;86.40
11229;DHT22;5671;47.936;8.716;2022-09-27T03:49:04;7.70;86.40
11229;DHT22;5671;47.936;8.716;2022-09-27T03:51:31;7.70;86.60
11229;DHT22;5671;47.936;8.716;2022-09-27T03:53:58;7.70;86.40
11229;DHT22;5671;47.936;8.716;2022-09-27T03:56:26;7.70;86.50
11229;DHT22;5671;47.936;8.716;2022-09-27T03:58:53;7.70;86.30
11229;DHT22;5671;47.936;8.716;2022-09-27T04:01:20;7.70;85.00
11229;DHT22;5671;47.936;8.716;2022-09-27T04:03:47;7.60;85.40
11229;DHT22;5671;47.936;8.716;2022-09-27T04:06:14;7.60;85.50
11229;DHT22;5671;47.936;8.716;2022-09-27T04:08:42;7.60;85.10
11229;DHT22;5671;47.936;8.716;2022-09-27T04:11:09;7.60;85.10
11229;DHT22;5671;47.936;8.716;2022-09-27T04:13:37;7.50;85.00
11229;DHT22;5671;47.936;8.716;2022-09-27T04:16:05;7.50;85.60
11229;DHT22;5671;47.936;8.716;2022-09-27T04:18:32;7.50;85.20
11229;DHT22;5671;47.936;8.716;2022-09-27T04:20:59;7.50;85.60
11229;DHT22;5671;47.936;8.716;2022-09-27T04:23:26;7.40;84.70
11229;DHT22;5671;47.936;8.716;2022-09-27T04:25:53;7.40;85.00
11229;DHT22;5671;47.936;8.716;2022-09-27T04:28:20;7.40;84.90
11229;DHT22;5671;47.936;8.716;2022-09-27T04:30:49;7.40;85.00
11229;DHT22;5671;47.936;8.716;2022-09-27T04:33:16;7.40;84.40
11229;DHT22;5671;47.936;8.716;2022-09-27T04:35:43;7.30;85.60
11229;DHT22;5671;47.936;8.716;2022-09-27T04:38:27;7.30;85.40
11229;DHT22;5671;47.936;8.716;2022-09-27T04:40:54;7.30;85.80
11229;DHT22;5671;47.936;8.716;2022-09-27T04:43:24;7.30;85.50
11229;DHT22;5671;47.936;8.716;2022-09-27T04:45:52;7.30;85.80
11229;DHT22;5671;47.936;8.716;2022-09-27T04:48:19;7.20;84.70
11229;DHT22;5671;47.936;8.716;2022-09-27T04:50:46;7.20;84.90
11229;DHT22;5671;47.936;8.716;2022-09-27T04:53:14;7.20;85.20
11229;DHT22;5671;47.936;8.716;2022-09-27T04:55:44;7.10;85.10
11229;DHT22;5671;47.936;8.716;2022-09-27T04:58:11;7.00;85.20
11229;DHT22;5671;47.936;8.716;2022-09-27T05:00:39;7.00;85.20
11229;DHT22;5671;47.936;8.716;2022-09-27T05:03:32;7.00;85.00
11229;DHT22;5671;47.936;8.716;2022-09-27T05:05:59;6.90;85.30
11229;DHT22;5671;47.936;8.716;2022-09-27T05:08:27;6.90;86.20
11229;DHT22;5671;47.936;8.716;2022-09-27T05:10:54;6.90;86.20
11229;DHT22;5671;47.936;8.716;2022-09-27T05:13:21;6.90;85.20
11229;DHT22;5671;47.936;8.716;2022-09-27T05:15:48;6.90;85.90
11229;DHT22;5671;47.936;8.716;2022-09-27T05:18:17;6.90;85.90
11229;DHT22;5671;47.936;8.716;2022-09-27T05:20:45;6.90;85.10
11229;DHT22;5671;47.936;8.716;2022-09-27T05:23:12;6.80;85.80
11229;DHT22;5671;47.936;8.716;2022-09-27T05:25:39;6.80;85.90
11229;DHT22;5671;47.936;8.716;2022-09-27T05:28:07;6.80;85.40
11229;DHT22;5671;47.936;8.716;2022-09-27T05:30:34;6.80;85.20
11229;DHT22;5671;47.936;8.716;2022-09-27T05:33:01;6.80;85.40
11229;DHT22;5671;47.936;8.716;2022-09-27T05:35:28;6.80;86.00
11229;DHT22;5671;47.936;8.716;2022-09-27T05:37:58;6.80;85.20
11229;DHT22;5671;47.936;8.716;2022-09-27T05:40:26;6.80;85.10
11229;DHT22;5671;47.936;8.716;2022-09-27T05:42:54;6.70;84.90
11229;DHT22;5671;47.936;8.716;2022-09-27T05:45:22;6.70;85.20
11229;DHT22;5671;47.936;8.716;2022-09-27T05:47:53;6.70;83.90
11229;DHT22;5671;47.936;8.716;2022-09-27T05:50:21;6.70;84.80
11229;DHT22;5671;47.936;8.716;2022-09-27T05:52:48;6.70;84.60
11229;DHT22;5671;47.936;8.716;2022-09-27T05:55:16;6.70;84.90
11229;DHT22;5671;47.936;8.716;2022-09-27T05:57:53;6.60;84.20
11229;DHT22;5671;47.936;8.716;2022-09-27T06:00:21;6.60;84.10
11229;DHT22;5671;47.936;8.716;2022-09-27T06:02:53;6.60;84.40
11229;DHT22;5671;47.936;8.716;2022-09-27T06:05:21;6.60;84.30
11229;DHT22;5671;47.936;8.716;2022-09-27T06:07:48;6.60;83.90
11229;DHT22;5671;47.936;8.716;2022-09-27T06:10:18;6.60;84.10
11229;DHT22;5671;47.936;8.716;2022-09-27T06:12:45;6.50;84.50
11229;DHT22;5671;47.936;8.716;2022-09-27T06:15:12;6.50;84.90
11229;DHT22;5671;47.936;8.716;2022-09-27T06:17:40;6.50;85.20
11229;DHT22;5671;47.936;8.716;2022-09-27T06:20:07;6.50;84.90
11229;DHT22;5671;47.936;8.716;2022-09-27T06:22:35;6.50;85.20
11229;DHT22;5671;47.936;8.716;2022-09-27T06:25:03;6.50;84.70
11229;DHT22;5671;47.936;8.716;2022-09-27T06:27:32;6.60;84.70
11229;DHT22;5671;47.936;8.716;2022-09-27T06:29:59;6.60;84.90
11229;DHT22;5671;47.936;8.716;2022-09-27T06:32:30;6.60;84.70
11229;DHT22;5671;47.936;8.716;2022-09-27T06:34:57;6.60;84.60
11229;DHT22;5671;47.936;8.716;2022-09-27T06:37:24;6.60;84.80
11229;DHT22;5671;47.936;8.716;2022-09-27T06:39:52;6.70;85.40
11229;DHT22;5671;47.936;8.716;2022-09-27T06:42:20;6.70;84.50
11229;DHT22;5671;47.936;8.716;2022-09-27T06:44:48;6.70;85.00
11229;DHT22;5671;47.936;8.716;2022-09-27T06:47:15;6.70;84.70
11229;DHT22;5671;47.936;8.716;2022-09-27T06:49:42;6.80;85.30
11229;DHT22;5671;47.936;8.716;2022-09-27T06:52:10;6.80;84.50
11229;DHT22;5671;47.936;8.716;2022-09-27T06:54:37;6.80;84.50
11229;DHT22;5671;47.936;8.716;2022-09-27T06:57:04;6.90;85.00
11229;DHT22;5671;47.936;8.716;2022-09-27T06:59:31;6.90;84.90
11229;DHT22;5671;47.936;8.716;2022-09-27T07:02:17;7.00;84.80
11229;DHT22;5671;47.936;8.716;2022-09-27T07:04:44;7.00;84.40
11229;DHT22;5671;47.936;8.716;2022-09-27T07:07:11;7.00;83.50
11229;DHT22;5671;47.936;8.716;2022-09-27T07:09:38;7.00;83.50
11229;DHT22;5671;47.936;8.716;2022-09-27T07:12:05;7.10;84.10
11229;DHT22;5671;47.936;8.716;2022-09-27T07:14:35;7.10;84.80
11229;DHT22;5671;47.936;8.716;2022-09-27T07:17:02;7.10;84.00
11229;DHT22;5671;47.936;8.716;2022-09-27T07:19:30;7.10;84.30
11229;DHT22;5671;47.936;8.716;2022-09-27T07:21:57;7.10;83.70
11229;DHT22;5671;47.936;8.716;2022-09-27T07:24:24;7.00;84.10
11229;DHT22;5671;47.936;8.716;2022-09-27T07:26:51;7.00;83.60
11229;DHT22;5671;47.936;8.716;2022-09-27T07:29:21;7.10;84.90
11229;DHT22;5671;47.936;8.716;2022-09-27T07:31:48;7.10;84.50
11229;DHT22;5671;47.936;8.716;2022-09-27T07:34:17;7.10;84.20
11229;DHT22;5671;47.936;8.716;2022-09-27T07:36:45;7.10;84.90
11229;DHT22;5671;47.936;8.716;2022-09-27T07:39:12;7.10;84.50
11229;DHT22;5671;47.936;8.716;2022-09-27T07:41:42;7.20;83.60
11229;DHT22;5671;47.936;8.716;2022-09-27T07:44:08;7.20;83.60
11229;DHT22;5671;47.936;8.716;2022-09-27T07:46:35;7.20;83.50
11229;DHT22;5671;47.936;8.716;2022-09-27T07:49:03;7.20;82.50
11229;DHT22;5671;47.936;8.716;2022-09-27T07:51:30;7.20;83.30
11229;DHT22;5671;47.936;8.716;2022-09-27T07:53:58;7.30;84.30
11229;DHT22;5671;47.936;8.716;2022-09-27T07:56:25;7.30;83.00
11229;DHT22;5671;47.936;8.716;2022-09-27T07:58:52;7.40;84.00
11229;DHT22;5671;47.936;8.716;2022-09-27T08:01:20;7.40;82.90
11229;DHT22;5671;47.936;8.716;2022-09-27T08:03:46;7.40;82.20
11229;DHT22;5671;47.936;8.716;2022-09-27T08:06:13;7.40;81.80
11229;DHT22;5671;47.936;8.716;2022-09-27T08:08:41;7.50;82.60
11229;DHT22;5671;47.936;8.716;2022-09-27T08:11:13;7.50;83.30
11229;DHT22;5671;47.936;8.716;2022-09-27T08:13:45;7.60;83.30
11229;DHT22;5671;47.936;8.716;2022-09-27T08:16:28;7.60;81.90
11229;DHT22;5671;47.936;8.716;2022-09-27T08:18:57;7.70;82.00
11229;DHT22;5671;47.936;8.716;2022-09-27T08:21:24;7.70;80.50
11229;DHT22;5671;47.936;8.716;2022-09-27T08:23:53;7.70;80.40
11229;DHT22;5671;47.936;8.716;2022-09-27T08:26:28;7.80;81.10
11229;DHT22;5671;47.936;8.716;2022-09-27T08:28:55;7.80;80.50
11229;DHT22;5671;47.936;8.716;2022-09-27T08:31:22;7.90;80.00
11229;DHT22;5671;47.936;8.716;2022-09-27T08:33:50;8.00;80.20
11229;DHT22;5671;47.936;8.716;2022-09-27T08:36:18;8.10;79.60
11229;DHT22;5671;47.936;8.716;2022-09-27T08:38:47;8.10;77.60
11229;DHT22;5671;47.936;8.716;2022-09-27T08:41:24;8.20;78.30
11229;DHT22;5671;47.936;8.716;2022-09-27T08:44:05;8.30;77.50
11229;DHT22;5671;47.936;8.716;2022-09-27T08:46:41;8.30;76.20
11229;DHT22;5671;47.936;8.716;2022-09-27T08:49:13;8.30;75.90
11229;DHT22;5671;47.936;8.716;2022-09-27T08:51:43;8.30;75.90
11229;DHT22;5671;47.936;8.716;2022-09-27T08:54:16;8.30;76.80
11229;DHT22;5671;47.936;8.716;2022-09-27T08:56:45;8.30;75.60
11229;DHT22;5671;47.936;8.716;2022-09-27T08:59:16;8.20;75.70
11229;DHT22;5671;47.936;8.716;2022-09-27T09:01:46;8.20;76.80
11229;DHT22;5671;47.936;8.716;2022-09-27T09:04:19;8.20;75.50
11229;DHT22;5671;47.936;8.716;2022-09-27T09:06:54;8.10;76.10
11229;DHT22;5671;47.936;8.716;2022-09-27T09:09:30;8.10;76.90
11229;DHT22;5671;47.936;8.716;2022-09-27T09:12:10;8.10;78.10
11229;DHT22;5671;47.936;8.716;2022-09-27T09:15:25;8.10;78.60
11229;DHT22;5671;47.936;8.716;2022-09-27T09:18:14;8.20;80.30
11229;DHT22;5671;47.936;8.716;2022-09-27T09:20:54;8.20;80.80
11229;DHT22;5671;47.936;8.716;2022-09-27T09:23:52;8.30;79.30
11229;DHT22;5671;47.936;8.716;2022-09-27T09:26:29;8.40;80.20
11229;DHT22;5671;47.936;8.716;2022-09-27T09:29:13;8.50;78.50
11229;DHT22;5671;47.936;8.716;2022-09-27T09:31:48;8.60;78.50
11229;DHT22;5671;47.936;8.716;2022-09-27T09:34:21;8.60;78.70
11229;DHT22;5671;47.936;8.716;2022-09-27T09:36:53;8.70;76.20
11229;DHT22;5671;47.936;8.716;2022-09-27T09:39:25;8.70;76.20
11229;DHT22;5671;47.936;8.716;2022-09-27T09:42:06;8.60;76.80
11229;DHT22;5671;47.936;8.716;2022-09-27T09:44:42;8.60;79.00
11229;DHT22;5671;47.936;8.716;2022-09-27T09:47:20;8.50;76.20
11229;DHT22;5671;47.936;8.716;2022-09-27T09:50:13;8.40;76.00
11229;DHT22;5671;47.936;8.716;2022-09-27T09:52:43;8.30;74.10
11229;DHT22;5671;47.936;8.716;2022-09-27T09:55:25;8.10;78.60
11229;DHT22;5671;47.936;8.716;2022-09-27T09:58:01;8.00;78.40
11229;DHT22;5671;47.936;8.716;2022-09-27T10:00:30;8.00;79.00
11229;DHT22;5671;47.936;8.716;2022-09-27T10:02:59;7.90;80.20
11229;DHT22;5671;47.936;8.716;2022-09-27T10:05:27;7.80;80.20
11229;DHT22;5671;47.936;8.716;2022-09-27T10:07:58;7.90;81.40
11229;DHT22;5671;47.936;8.716;2022-09-27T10:10:26;7.90;81.60
11229;DHT22;5671;47.936;8.716;2022-09-27T10:12:54;8.00;81.30
11229;DHT22;5671;47.936;8.716;2022-09-27T10:15:23;8.00;80.70
11229;DHT22;5671;47.936;8.716;2022-09-27T10:17:54;8.10;80.60
11229;DHT22;5671;47.936;8.716;2022-09-27T10:20:34;8.10;79.40
11229;DHT22;5671;47.936;8.716;2022-09-27T10:23:05;8.10;79.90
11229;DHT22;5671;47.936;8.716;2022-09-27T10:25:46;8.20;81.10
11229;DHT22;5671;47.936;8.716;2022-09-27T10:28:28;8.30;80.90
11229;DHT22;5671;47.936;8.716;2022-09-27T10:30:59;8.40;82.60
11229;DHT22;5671;47.936;8.716;2022-09-27T10:33:28;8.50;81.00
11229;DHT22;5671;47.936;8.716;2022-09-27T10:35:58;8.50;79.20
11229;DHT22;5671;47.936;8.716;2022-09-27T10:38:28;8.60;78.40
11229;DHT22;5671;47.936;8.716;2022-09-27T10:40:56;8.60;79.30
11229;DHT22;5671;47.936;8.716;2022-09-27T10:43:26;8.60;78.00
11229;DHT22;5671;47.936;8.716;2022-09-27T10:46:04;8.80;80.90
11229;DHT22;5671;47.936;8.716;2022-09-27T10:48:32;9.00;80.50
11229;DHT22;5671;47.936;8.716;2022-09-27T10:51:02;9.30;77.30
11229;DHT22;5671;47.936;8.716;2022-09-27T10:53:30;9.40;75.30
11229;DHT22;5671;47.936;8.716;2022-09-27T10:55:58;9.50;77.40
11229;DHT22;5671;47.936;8.716;2022-09-27T10:58:26;9.60;74.80
11229;DHT22;5671;47.936;8.716;2022-09-27T11:00:56;9.70;74.40
11229;DHT22;5671;47.936;8.716;2022-09-27T11:03:26;9.70;74.10
11229;DHT22;5671;47.936;8.716;2022-09-27T11:05:54;9.80;75.10
11229;DHT22;5671;47.936;8.716;2022-09-27T11:08:27;9.80;73.90
11229;DHT22;5671;47.936;8.716;2022-09-27T11:11:05;10.10;72.30
11229;DHT22;5671;47.936;8.716;2022-09-27T11:13:32;10.60;72.70
11229;DHT22;5671;47.936;8.716;2022-09-27T11:16:22;10.60;70.80
11229;DHT22;5671;47.936;8.716;2022-09-27T11:19:00;11.10;73.20
11229;DHT22;5671;47.936;8.716;2022-09-27T11:21:35;11.30;70.70
11229;DHT22;5671;47.936;8.716;2022-09-27T11:24:30;11.90;68.70
11229;DHT22;5671;47.936;8.716;2022-09-27T11:27:08;12.50;71.10
11229;DHT22;5671;47.936;8.716;2022-09-27T11:29:52;13.10;65.50
11229;DHT22;5671;47.936;8.716;2022-09-27T11:32:32;13.50;63.40
11229;DHT22;5671;47.936;8.716;2022-09-27T11:35:29;14.10;62.90
11229;DHT22;5671;47.936;8.716;2022-09-27T11:38:14;14.30;59.50
11229;DHT22;5671;47.936;8.716;2022-09-27T11:41:02;14.30;61.20
11229;DHT22;5671;47.936;8.716;2022-09-27T11:44:13;14.10;57.30
11229;DHT22;5671;47.936;8.716;2022-09-27T11:46:47;13.80;59.30
11229;DHT22;5671;47.936;8.716;2022-09-27T11:49:36;13.60;60.00
11229;DHT22;5671;47.936;8.716;2022-09-27T11:52:19;13.40;59.80
11229;DHT22;5671;47.936;8.716;2022-09-27T11:55:07;13.20;61.50
11229;DHT22;5671;47.936;8.716;2022-09-27T11:57:41;13.20;62.30
11229;DHT22;5671;47.936;8.716;2022-09-27T12:00:15;13.10;61.40
11229;DHT22;5671;47.936;8.716;2022-09-27T12:06:06;12.80;61.20
11229;DHT22;5671;47.936;8.716;2022-09-27T12:08:51;12.80;60.80
11229;DHT22;5671;47.936;8.716;2022-09-27T12:11:25;12.60;60.20
11229;DHT22;5671;47.936;8.716;2022-09-27T12:13:58;12.30;59.70
11229;DHT22;5671;47.936;8.716;2022-09-27T12:16:26;12.10;60.00
11229;DHT22;5671;47.936;8.716;2022-09-27T12:18:53;12.00;62.00
11229;DHT22;5671;47.936;8.716;2022-09-27T12:21:22;11.90;61.20
11229;DHT22;5671;47.936;8.716;2022-09-27T12:23:52;11.70;62.10
11229;DHT22;5671;47.936;8.716;2022-09-27T12:26:22;11.60;62.90
11229;DHT22;5671;47.936;8.716;2022-09-27T12:28:53;11.40;62.50
11229;DHT22;5671;47.936;8.716;2022-09-27T12:31:30;11.30;64.50
11229;DHT22;5671;47.936;8.716;2022-09-27T12:34:07;11.30;64.60
11229;DHT22;5671;47.936;8.716;2022-09-27T12:36:42;11.30;62.90
11229;DHT22;5671;47.936;8.716;2022-09-27T12:39:18;11.30;63.70
11229;DHT22;5671;47.936;8.716;2022-09-27T12:41:59;11.20;61.80
11229;DHT22;5671;47.936;8.716;2022-09-27T12:44:30;11.10;64.50
11229;DHT22;5671;47.936;8.716;2022-09-27T12:47:15;10.90;65.60
11229;DHT22;5671;47.936;8.716;2022-09-27T12:49:54;10.70;67.70
11229;DHT22;5671;47.936;8.716;2022-09-27T12:52:30;10.50;66.60
11229;DHT22;5671;47.936;8.716;2022-09-27T12:55:38;10.30;69.40
11229;DHT22;5671;47.936;8.716;2022-09-27T12:58:27;10.10;70.90
11229;DHT22;5671;47.936;8.716;2022-09-27T13:01:08;9.90;71.40
11229;DHT22;5671;47.936;8.716;2022-09-27T13:04:08;9.70;75.00
11229;DHT22;5671;47.936;8.716;2022-09-27T13:07:05;9.60;74.80
11229;DHT22;5671;47.936;8.716;2022-09-27T13:10:07;9.40;75.40
11229;DHT22;5671;47.936;8.716;2022-09-27T13:13:08;9.30;77.10
11229;DHT22;5671;47.936;8.716;2022-09-27T13:15:38;9.40;78.20
11229;DHT22;5671;47.936;8.716;2022-09-27T13:18:43;9.30;77.20
11229;DHT22;5671;47.936;8.716;2022-09-27T13:24:56;9.40;77.70
11229;DHT22;5671;47.936;8.716;2022-09-27T13:27:44;9.40;77.60
11229;DHT22;5671;47.936;8.716;2022-09-27T13:30:44;9.50;78.40
11229;DHT22;5671;47.936;8.716;2022-09-27T13:36:12;9.60;77.70
11229;DHT22;5671;47.936;8.716;2022-09-27T13:38:52;9.50;75.70
11229;DHT22;5671;47.936;8.716;2022-09-27T13:41:21;9.50;75.50
11229;DHT22;5671;47.936;8.716;2022-09-27T13:43:59;9.50;77.10
11229;DHT22;5671;47.936;8.716;2022-09-27T13:46:30;9.50;75.30
11229;DHT22;5671;47.936;8.716;2022-09-27T13:49:02;9.50;76.60
11229;DHT22;5671;47.936;8.716;2022-09-27T13:51:35;9.50;76.30
11229;DHT22;5671;47.936;8.716;2022-09-27T13:54:36;9.40;77.80
11229;DHT22;5671;47.936;8.716;2022-09-27T13:57:37;9.30;76.90
11229;DHT22;5671;47.936;8.716;2022-09-27T14:00:10;9.30;77.40
11229;DHT22;5671;47.936;8.716;2022-09-27T14:02:44;9.10;75.80
11229;DHT22;5671;47.936;8.716;2022-09-27T14:05:20;8.90;75.60
11229;DHT22;5671;47.936;8.716;2022-09-27T14:07:49;8.80;78.10
11229;DHT22;5671;47.936;8.716;2022-09-27T14:10:19;8.70;77.90
11229;DHT22;5671;47.936;8.716;2022-09-27T14:12:49;8.70;79.30
11229;DHT22;5671;47.936;8.716;2022-09-27T14:15:22;8.60;79.50
11229;DHT22;5671;47.936;8.716;2022-09-27T14:17:50;8.50;80.00
11229;DHT22;5671;47.936;8.716;2022-09-27T14:20:35;8.40;80.50
11229;DHT22;5671;47.936;8.716;2022-09-27T14:23:03;8.40;80.60
11229;DHT22;5671;47.936;8.716;2022-09-27T14:25:31;8.40;81.50
11229;DHT22;5671;47.936;8.716;2022-09-27T14:27:58;8.30;80.60
11229;DHT22;5671;47.936;8.716;2022-09-27T14:30:28;8.30;81.50
11229;DHT22;5671;47.936;8.716;2022-09-27T14:32:56;8.30;82.00
11229;DHT22;5671;47.936;8.716;2022-09-27T14:35:32;8.30;81.60
11229;DHT22;5671;47.936;8.716;2022-09-27T14:38:19;8.20;81.70
11229;DHT22;5671;47.936;8.716;2022-09-27T14:40:57;8.20;82.60
11229;DHT22;5671;47.936;8.716;2022-09-27T14:43:25;8.20;83.60
11229;DHT22;5671;47.936;8.716;2022-09-27T14:45:57;8.20;83.10
11229;DHT22;5671;47.936;8.716;2022-09-27T14:48:27;8.20;83.50
11229;DHT22;5671;47.936;8.716;2022-09-27T14:50:56;8.10;82.80
11229;DHT22;5671;47.936;8.716;2022-09-27T14:53:28;8.10;81.90
11229;DHT22;5671;47.936;8.716;2022-09-27T14:55:55;8.10;82.80
11229;DHT22;5671;47.936;8.716;2022-09-27T14:58:23;8.00;83.10
11229;DHT22;5671;47.936;8.716;2022-09-27T15:00:52;8.00;83.20
11229;DHT22;5671;47.936;8.716;2022-09-27T15:03:23;8.00;84.30
11229;DHT22;5671;47.936;8.716;2022-09-27T15:05:51;7.90;83.00
11229;DHT22;5671;47.936;8.716;2022-09-27T15:08:22;7.90;82.70
11229;DHT22;5671;47.936;8.716;2022-09-27T15:10:51;7.90;83.30
11229;DHT22;5671;47.936;8.716;2022-09-27T15:13:19;7.80;83.10
11229;DHT22;5671;47.936;8.716;2022-09-27T15:15:46;7.80;83.30
11229;DHT22;5671;47.936;8.716;2022-09-27T15:18:40;7.70;83.70
11229;DHT22;5671;47.936;8.716;2022-09-27T15:21:09;7.70;83.00
11229;DHT22;5671;47.936;8.716;2022-09-27T15:23:39;7.60;83.40
11229;DHT22;5671;47.936;8.716;2022-09-27T15:26:12;7.60;83.10
11229;DHT22;5671;47.936;8.716;2022-09-27T15:28:43;7.60;83.90
11229;DHT22;5671;47.936;8.716;2022-09-27T15:31:10;7.50;84.20
11229;DHT22;5671;47.936;8.716;2022-09-27T15:33:40;7.50;83.90
11229;DHT22;5671;47.936;8.716;2022-09-27T15:36:09;7.60;84.70
11229;DHT22;5671;47.936;8.716;2022-09-27T15:38:37;7.60;84.50
11229;DHT22;5671;47.936;8.716;2022-09-27T15:41:14;7.60;84.80
11229;DHT22;5671;47.936;8.716;2022-09-27T15:43:55;7.60;84.10
11229;DHT22;5671;47.936;8.716;2022-09-27T15:46:33;7.60;85.30
11229;DHT22;5671;47.936;8.716;2022-09-27T15:52:00;7.70;85.50
11229;DHT22;5671;47.936;8.716;2022-09-27T15:54:30;7.80;85.30
11229;DHT22;5671;47.936;8.716;2022-09-27T15:57:02;7.90;86.10
11229;DHT22;5671;47.936;8.716;2022-09-27T15:59:32;7.90;85.30
11229;DHT22;5671;47.936;8.716;2022-09-27T16:02:01;8.00;84.80
11229;DHT22;5671;47.936;8.716;2022-09-27T16:04:32;8.00;84.10
11229;DHT22;5671;47.936;8.716;2022-09-27T16:07:00;8.00;83.60
11229;DHT22;5671;47.936;8.716;2022-09-27T16:09:27;8.00;83.70
11229;DHT22;5671;47.936;8.716;2022-09-27T16:11:54;7.90;83.80
11229;DHT22;5671;47.936;8.716;2022-09-27T16:14:21;8.00;83.90
11229;DHT22;5671;47.936;8.716;2022-09-27T16:16:50;7.90;83.10
11229;DHT22;5671;47.936;8.716;2022-09-27T16:19:25;7.90;83.30
11229;DHT22;5671;47.936;8.716;2022-09-27T16:21:56;7.90;83.40
11229;DHT22;5671;47.936;8.716;2022-09-27T16:24:27;7.90;84.20
11229;DHT22;5671;47.936;8.716;2022-09-27T16:26:55;7.90;83.90
11229;DHT22;5671;47.936;8.716;2022-09-27T16:29:23;7.90;84.70
11229;DHT22;5671;47.936;8.716;2022-09-27T16:31:50;7.90;84.90
11229;DHT22;5671;47.936;8.716;2022-09-27T16:34:18;7.90;84.40
11229;DHT22;5671;47.936;8.716;2022-09-27T16:36:45;7.90;85.10
11229;DHT22;5671;47.936;8.716;2022-09-27T16:39:13;7.90;85.30
11229;DHT22;5671;47.936;8.716;2022-09-27T16:41:40;7.90;85.00
11229;DHT22;5671;47.936;8.716;2022-09-27T16:44:09;7.90;85.20
11229;DHT22;5671;47.936;8.716;2022-09-27T16:46:38;7.90;85.40